sensor_id;sensor_type;location;lat;lon;timestamp;pressure;altitude;pressure_sealevel;temperature;humidity
62072;BME280;48031;48.542;13.232;2023-05-20T00:02:16;97423.59;;;17.86;55.69
62072;BME280;48031;48.542;13.232;2023-05-20T00:06:18;97426.34;;;18.05;54.77
62072;BME280;48031;48.542;13.232;2023-05-20T00:10:20;97417.94;;;17.96;54.82
62072;BME280;48031;48.542;13.232;2023-05-20T00:14:22;97414.25;;;17.87;53.80
62072;BME280;48031;48.542;13.232;2023-05-20T00:18:23;97410.63;;;17.73;54.55
62072;BME280;48031;48.542;13.232;2023-05-20T00:22:25;97401.84;;;17.90;55.20
62072;BME280;48031;48.542;13.232;2023-05-20T00:26:28;97402.16;;;17.88;55.61
62072;BME280;48031;48.542;13.232;2023-05-20T00:30:31;97397.72;;;17.73;55.53
62072;BME280;48031;48.542;13.232;2023-05-20T00:34:33;97405.03;;;17.78;55.61
62072;BME280;48031;48.542;13.232;2023-05-20T00:38:34;97405.03;;;17.78;55.22
62072;BME280;48031;48.542;13.232;2023-05-20T00:42:36;97403.44;;;17.77;55.55
62072;BME280;48031;48.542;13.232;2023-05-20T00:46:38;97397.50;;;17.70;54.85
62072;BME280;48031;48.542;13.232;2023-05-20T00:50:40;97399.63;;;17.54;55.75
62072;BME280;48031;48.542;13.232;2023-05-20T00:54:42;97396.81;;;17.59;55.63
62072;BME280;48031;48.542;13.232;2023-05-20T00:58:44;97408.16;;;17.53;55.64
62072;BME280;48031;48.542;13.232;2023-05-20T01:02:46;97395.84;;;17.31;55.88
62072;BME280;48031;48.542;13.232;2023-05-20T01:06:48;97393.34;;;17.11;56.87
62072;BME280;48031;48.542;13.232;2023-05-20T01:10:57;97393.59;;;17.52;56.32
62072;BME280;48031;48.542;13.232;2023-05-20T01:15:11;97390.09;;;17.70;55.81
62072;BME280;48031;48.542;13.232;2023-05-20T01:19:30;97386.97;;;17.77;55.61
62072;BME280;48031;48.542;13.232;2023-05-20T01:23:40;97400.25;;;17.70;56.02
62072;BME280;48031;48.542;13.232;2023-05-20T01:27:42;97400.97;;;17.38;56.47
62072;BME280;48031;48.542;13.232;2023-05-20T01:31:46;97405.41;;;17.53;56.04
62072;BME280;48031;48.542;13.232;2023-05-20T01:35:48;97393.72;;;17.23;54.96
62072;BME280;48031;48.542;13.232;2023-05-20T01:39:51;97391.53;;;17.44;55.84
62072;BME280;48031;48.542;13.232;2023-05-20T01:43:54;97381.50;;;17.34;55.96
62072;BME280;48031;48.542;13.232;2023-05-20T01:47:56;97379.53;;;16.97;56.45
62072;BME280;48031;48.542;13.232;2023-05-20T01:51:58;97378.25;;;17.14;56.23
62072;BME280;48031;48.542;13.232;2023-05-20T01:56:00;97377.53;;;17.27;56.28
62072;BME280;48031;48.542;13.232;2023-05-20T02:00:03;97378.69;;;17.21;56.18
62072;BME280;48031;48.542;13.232;2023-05-20T02:04:13;97379.13;;;17.28;55.83
62072;BME280;48031;48.542;13.232;2023-05-20T02:08:15;97374.28;;;17.01;57.37
62072;BME280;48031;48.542;13.232;2023-05-20T02:12:17;97378.31;;;17.09;57.39
62072;BME280;48031;48.542;13.232;2023-05-20T02:16:19;97382.50;;;17.01;57.19
62072;BME280;48031;48.542;13.232;2023-05-20T02:20:21;97356.06;;;17.10;56.44
62072;BME280;48031;48.542;13.232;2023-05-20T02:24:23;97366.06;;;17.01;56.54
62072;BME280;48031;48.542;13.232;2023-05-20T02:28:25;97364.00;;;17.12;56.35
62072;BME280;48031;48.542;13.232;2023-05-20T02:32:29;97364.00;;;17.12;56.00
62072;BME280;48031;48.542;13.232;2023-05-20T02:36:30;97362.44;;;17.05;56.65
62072;BME280;48031;48.542;13.232;2023-05-20T02:40:35;97355.63;;;17.03;56.05
62072;BME280;48031;48.542;13.232;2023-05-20T02:44:36;97352.94;;;16.98;56.11
62072;BME280;48031;48.542;13.232;2023-05-20T02:48:38;97353.75;;;16.98;56.17
62072;BME280;48031;48.542;13.232;2023-05-20T02:52:40;97355.75;;;16.93;56.46
62072;BME280;48031;48.542;13.232;2023-05-20T02:56:43;97362.75;;;17.04;55.91
62072;BME280;48031;48.542;13.232;2023-05-20T03:00:45;97352.19;;;17.11;55.71
62072;BME280;48031;48.542;13.232;2023-05-20T03:04:47;97346.03;;;17.00;55.98
62072;BME280;48031;48.542;13.232;2023-05-20T03:08:49;97348.78;;;16.82;56.11
62072;BME280;48031;48.542;13.232;2023-05-20T03:12:51;97355.50;;;16.89;56.05
62072;BME280;48031;48.542;13.232;2023-05-20T03:16:53;97350.44;;;16.78;56.17
62072;BME280;48031;48.542;13.232;2023-05-20T03:20:58;97352.69;;;16.76;56.28
62072;BME280;48031;48.542;13.232;2023-05-20T03:25:00;97354.50;;;16.56;57.07
62072;BME280;48031;48.542;13.232;2023-05-20T03:29:05;97348.44;;;16.65;56.59
62072;BME280;48031;48.542;13.232;2023-05-20T03:33:08;97353.03;;;16.69;56.44
62072;BME280;48031;48.542;13.232;2023-05-20T03:37:10;97361.84;;;16.66;56.76
62072;BME280;48031;48.542;13.232;2023-05-20T03:41:13;97351.88;;;16.75;56.36
62072;BME280;48031;48.542;13.232;2023-05-20T03:45:15;97351.94;;;16.70;56.88
62072;BME280;48031;48.542;13.232;2023-05-20T03:49:27;97355.41;;;16.76;56.43
62072;BME280;48031;48.542;13.232;2023-05-20T03:53:30;97365.66;;;16.89;55.87
62072;BME280;48031;48.542;13.232;2023-05-20T03:57:33;97361.88;;;16.85;56.18
62072;BME280;48031;48.542;13.232;2023-05-20T04:01:35;97351.50;;;16.82;56.16
62072;BME280;48031;48.542;13.232;2023-05-20T04:05:38;97349.75;;;16.91;56.21
62072;BME280;48031;48.542;13.232;2023-05-20T04:09:48;97359.13;;;16.85;55.93
62072;BME280;48031;48.542;13.232;2023-05-20T04:13:51;97356.31;;;16.90;55.45
62072;BME280;48031;48.542;13.232;2023-05-20T04:17:53;97363.09;;;16.97;56.31
62072;BME280;48031;48.542;13.232;2023-05-20T04:21:56;97360.63;;;16.96;56.29
62072;BME280;48031;48.542;13.232;2023-05-20T04:25:58;97359.66;;;16.87;56.97
62072;BME280;48031;48.542;13.232;2023-05-20T04:30:06;97368.78;;;17.43;55.65
62072;BME280;48031;48.542;13.232;2023-05-20T04:34:13;97359.47;;;17.02;56.87
62072;BME280;48031;48.542;13.232;2023-05-20T04:38:16;97357.81;;;17.01;56.08
62072;BME280;48031;48.542;13.232;2023-05-20T04:42:19;97350.72;;;17.00;56.34
62072;BME280;48031;48.542;13.232;2023-05-20T04:46:22;97354.19;;;17.05;56.56
62072;BME280;48031;48.542;13.232;2023-05-20T04:50:25;97358.56;;;17.07;56.83
62072;BME280;48031;48.542;13.232;2023-05-20T04:54:28;97357.19;;;17.09;56.78
62072;BME280;48031;48.542;13.232;2023-05-20T04:58:31;97356.06;;;17.10;57.69
62072;BME280;48031;48.542;13.232;2023-05-20T05:02:35;97351.84;;;17.18;58.36
62072;BME280;48031;48.542;13.232;2023-05-20T05:06:38;97358.38;;;17.22;57.44
62072;BME280;48031;48.542;13.232;2023-05-20T05:10:41;97348.28;;;17.17;58.52
62072;BME280;48031;48.542;13.232;2023-05-20T05:14:43;97353.31;;;17.29;56.99
62072;BME280;48031;48.542;13.232;2023-05-20T05:18:45;97348.81;;;17.38;57.08
62072;BME280;48031;48.542;13.232;2023-05-20T05:22:47;97350.28;;;17.30;57.51
62072;BME280;48031;48.542;13.232;2023-05-20T05:26:53;97359.94;;;17.46;57.53
62072;BME280;48031;48.542;13.232;2023-05-20T05:30:55;97353.41;;;17.61;57.35
62072;BME280;48031;48.542;13.232;2023-05-20T05:34:57;97358.13;;;17.56;57.20
62072;BME280;48031;48.542;13.232;2023-05-20T05:39:02;97357.81;;;17.43;57.93
62072;BME280;48031;48.542;13.232;2023-05-20T05:43:04;97359.63;;;17.29;57.64
62072;BME280;48031;48.542;13.232;2023-05-20T05:47:07;97361.13;;;17.59;57.49
62072;BME280;48031;48.542;13.232;2023-05-20T05:51:09;97354.25;;;17.62;57.27
62072;BME280;48031;48.542;13.232;2023-05-20T05:55:12;97354.03;;;17.77;57.91
62072;BME280;48031;48.542;13.232;2023-05-20T05:59:16;97354.09;;;17.72;58.17
62072;BME280;48031;48.542;13.232;2023-05-20T06:03:17;97351.38;;;17.85;57.91
62072;BME280;48031;48.542;13.232;2023-05-20T06:07:22;97351.19;;;17.82;58.87
62072;BME280;48031;48.542;13.232;2023-05-20T06:11:25;97351.84;;;18.06;58.59
62072;BME280;48031;48.542;13.232;2023-05-20T06:15:27;97348.22;;;18.11;58.06
62072;BME280;48031;48.542;13.232;2023-05-20T06:19:31;97350.91;;;17.97;58.44
62072;BME280;48031;48.542;13.232;2023-05-20T06:23:33;97337.66;;;18.45;60.07
62072;BME280;48031;48.542;13.232;2023-05-20T06:27:38;97340.94;;;18.47;57.96
62072;BME280;48031;48.542;13.232;2023-05-20T06:31:44;97340.38;;;18.64;56.68
62072;BME280;48031;48.542;13.232;2023-05-20T06:35:46;97328.47;;;18.82;57.54
62072;BME280;48031;48.542;13.232;2023-05-20T06:39:49;97336.09;;;18.85;56.71
62072;BME280;48031;48.542;13.232;2023-05-20T06:43:54;97327.13;;;18.93;56.83
62072;BME280;48031;48.542;13.232;2023-05-20T06:48:10;97333.28;;;19.13;56.92
62072;BME280;48031;48.542;13.232;2023-05-20T06:52:12;97323.84;;;19.41;56.92
62072;BME280;48031;48.542;13.232;2023-05-20T06:56:14;97327.34;;;19.69;55.04
62072;BME280;48031;48.542;13.232;2023-05-20T07:00:17;97319.28;;;19.50;56.11
62072;BME280;48031;48.542;13.232;2023-05-20T07:04:19;97323.59;;;19.87;55.64
62072;BME280;48031;48.542;13.232;2023-05-20T07:08:21;97317.91;;;19.83;54.66
62072;BME280;48031;48.542;13.232;2023-05-20T07:12:23;97314.81;;;20.07;54.79
62072;BME280;48031;48.542;13.232;2023-05-20T07:16:25;97324.53;;;20.05;54.20
62072;BME280;48031;48.542;13.232;2023-05-20T07:20:29;97320.50;;;20.11;55.03
62072;BME280;48031;48.542;13.232;2023-05-20T07:24:35;97323.66;;;20.49;54.71
62072;BME280;48031;48.542;13.232;2023-05-20T07:28:38;97311.53;;;20.58;54.02
62072;BME280;48031;48.542;13.232;2023-05-20T07:32:40;97314.19;;;20.32;54.81
62072;BME280;48031;48.542;13.232;2023-05-20T07:36:43;97307.19;;;20.74;53.51
62072;BME280;48031;48.542;13.232;2023-05-20T07:40:45;97306.22;;;20.70;53.28
62072;BME280;48031;48.542;13.232;2023-05-20T07:44:48;97307.34;;;20.69;53.59
62072;BME280;48031;48.542;13.232;2023-05-20T07:48:50;97302.63;;;20.70;53.70
62072;BME280;48031;48.542;13.232;2023-05-20T07:52:52;97310.38;;;20.59;53.77
62072;BME280;48031;48.542;13.232;2023-05-20T07:57:00;97310.59;;;20.71;53.28
62072;BME280;48031;48.542;13.232;2023-05-20T08:01:03;97306.78;;;20.90;51.94
62072;BME280;48031;48.542;13.232;2023-05-20T08:05:06;97309.88;;;21.05;53.62
62072;BME280;48031;48.542;13.232;2023-05-20T08:09:08;97292.88;;;20.64;53.38
62072;BME280;48031;48.542;13.232;2023-05-20T08:13:15;97290.78;;;21.26;52.46
62072;BME280;48031;48.542;13.232;2023-05-20T08:17:17;97294.59;;;20.99;53.55
62072;BME280;48031;48.542;13.232;2023-05-20T08:21:19;97292.16;;;20.98;53.46
62072;BME280;48031;48.542;13.232;2023-05-20T08:25:21;97297.28;;;21.39;52.59
62072;BME280;48031;48.542;13.232;2023-05-20T08:29:24;97287.69;;;21.36;52.28
62072;BME280;48031;48.542;13.232;2023-05-20T08:33:26;97295.00;;;21.58;52.38
62072;BME280;48031;48.542;13.232;2023-05-20T08:37:28;97280.53;;;21.61;51.22
62072;BME280;48031;48.542;13.232;2023-05-20T08:41:30;97270.75;;;21.81;51.36
62072;BME280;48031;48.542;13.232;2023-05-20T08:45:33;97271.38;;;22.12;49.82
62072;BME280;48031;48.542;13.232;2023-05-20T08:49:41;97288.28;;;21.85;50.58
62072;BME280;48031;48.542;13.232;2023-05-20T08:53:43;97280.94;;;22.23;49.54
62072;BME280;48031;48.542;13.232;2023-05-20T08:57:45;97289.28;;;22.53;48.54
62072;BME280;48031;48.542;13.232;2023-05-20T09:01:47;97282.97;;;22.82;47.76
62072;BME280;48031;48.542;13.232;2023-05-20T09:05:50;97281.31;;;22.89;47.62
62072;BME280;48031;48.542;13.232;2023-05-20T09:09:52;97277.66;;;22.68;48.10
62072;BME280;48031;48.542;13.232;2023-05-20T09:13:54;97277.56;;;22.85;49.68
62072;BME280;48031;48.542;13.232;2023-05-20T09:18:00;97275.81;;;23.31;47.04
62072;BME280;48031;48.542;13.232;2023-05-20T09:22:03;97277.56;;;22.85;47.56
62072;BME280;48031;48.542;13.232;2023-05-20T09:26:05;97269.28;;;23.56;46.31
62072;BME280;48031;48.542;13.232;2023-05-20T09:30:08;97271.97;;;23.44;46.47
62072;BME280;48031;48.542;13.232;2023-05-20T09:34:13;97264.47;;;23.24;46.37
62072;BME280;48031;48.542;13.232;2023-05-20T09:38:15;97276.28;;;23.74;45.13
62072;BME280;48031;48.542;13.232;2023-05-20T09:42:21;97272.13;;;24.34;44.91
62072;BME280;48031;48.542;13.232;2023-05-20T09:46:27;97281.47;;;24.41;43.61
62072;BME280;48031;48.542;13.232;2023-05-20T09:50:30;97264.50;;;24.67;44.13
62072;BME280;48031;48.542;13.232;2023-05-20T09:54:34;97262.88;;;24.42;42.54
62072;BME280;48031;48.542;13.232;2023-05-20T09:58:37;97271.09;;;24.75;42.18
62072;BME280;48031;48.542;13.232;2023-05-20T10:02:44;97260.78;;;25.24;40.64
62072;BME280;48031;48.542;13.232;2023-05-20T10:19:31;97269.84;;;25.89;38.60
62072;BME280;48031;48.542;13.232;2023-05-20T10:23:33;97271.69;;;26.25;38.19
62072;BME280;48031;48.542;13.232;2023-05-20T10:27:45;97257.47;;;26.93;36.43
62072;BME280;48031;48.542;13.232;2023-05-20T10:31:48;97261.69;;;27.18;35.40
62072;BME280;48031;48.542;13.232;2023-05-20T10:35:51;97253.13;;;27.46;34.54
62072;BME280;48031;48.542;13.232;2023-05-20T10:40:12;97257.28;;;27.90;33.67
62072;BME280;48031;48.542;13.232;2023-05-20T10:44:15;97257.28;;;27.52;36.14
62072;BME280;48031;48.542;13.232;2023-05-20T10:48:31;97255.66;;;27.89;34.84
62072;BME280;48031;48.542;13.232;2023-05-20T10:52:35;97254.00;;;27.50;35.90
62072;BME280;48031;48.542;13.232;2023-05-20T10:56:39;97242.63;;;27.39;35.35
62072;BME280;48031;48.542;13.232;2023-05-20T11:00:42;97246.41;;;27.66;35.40
62072;BME280;48031;48.542;13.232;2023-05-20T11:04:45;97256.25;;;27.60;34.25
62072;BME280;48031;48.542;13.232;2023-05-20T11:08:47;97254.19;;;27.95;35.10
62072;BME280;48031;48.542;13.232;2023-05-20T11:12:49;97237.69;;;28.29;34.94
62072;BME280;48031;48.542;13.232;2023-05-20T11:16:51;97248.25;;;28.84;33.35
62072;BME280;48031;48.542;13.232;2023-05-20T11:20:55;97242.88;;;29.25;32.85
62072;BME280;48031;48.542;13.232;2023-05-20T11:24:57;97239.91;;;28.88;31.97
62072;BME280;48031;48.542;13.232;2023-05-20T11:29:00;97226.75;;;28.88;33.78
62072;BME280;48031;48.542;13.232;2023-05-20T11:33:02;97234.78;;;28.44;33.22
62072;BME280;48031;48.542;13.232;2023-05-20T11:37:09;97224.28;;;28.61;33.60
62072;BME280;48031;48.542;13.232;2023-05-20T11:41:11;97224.34;;;28.19;32.81
62072;BME280;48031;48.542;13.232;2023-05-20T11:45:13;97228.38;;;28.67;34.48
62072;BME280;48031;48.542;13.232;2023-05-20T11:49:16;97223.09;;;28.62;33.28
62072;BME280;48031;48.542;13.232;2023-05-20T11:53:20;97224.22;;;29.32;33.30
62072;BME280;48031;48.542;13.232;2023-05-20T11:57:22;97218.19;;;29.04;32.55
62072;BME280;48031;48.542;13.232;2023-05-20T12:01:24;97215.63;;;29.18;31.60
62072;BME280;48031;48.542;13.232;2023-05-20T12:05:26;97210.34;;;30.47;29.40
62072;BME280;48031;48.542;13.232;2023-05-20T12:09:28;97208.06;;;31.11;29.56
62072;BME280;48031;48.542;13.232;2023-05-20T12:13:30;97200.91;;;31.13;30.46
62072;BME280;48031;48.542;13.232;2023-05-20T12:17:46;97200.94;;;31.20;29.61
62072;BME280;48031;48.542;13.232;2023-05-20T12:21:49;97200.13;;;30.65;28.91
62072;BME280;48031;48.542;13.232;2023-05-20T12:25:51;97204.44;;;30.55;29.15
62072;BME280;48031;48.542;13.232;2023-05-20T12:29:52;97193.81;;;31.41;28.22
62072;BME280;48031;48.542;13.232;2023-05-20T12:33:54;97185.34;;;32.31;27.22
62072;BME280;48031;48.542;13.232;2023-05-20T12:37:56;97178.09;;;32.61;28.93
62072;BME280;48031;48.542;13.232;2023-05-20T12:41:58;97187.75;;;33.21;26.20
62072;BME280;48031;48.542;13.232;2023-05-20T12:46:00;97183.69;;;33.11;25.90
62072;BME280;48031;48.542;13.232;2023-05-20T12:50:03;97175.69;;;33.10;25.61
62072;BME280;48031;48.542;13.232;2023-05-20T12:54:06;97182.78;;;33.57;27.19
62072;BME280;48031;48.542;13.232;2023-05-20T12:58:08;97171.19;;;33.40;24.73
62072;BME280;48031;48.542;13.232;2023-05-20T13:02:10;97167.25;;;33.03;25.83
62072;BME280;48031;48.542;13.232;2023-05-20T13:06:12;97170.91;;;32.68;27.79
62072;BME280;48031;48.542;13.232;2023-05-20T13:10:14;97176.78;;;31.88;26.25
62072;BME280;48031;48.542;13.232;2023-05-20T13:14:17;97161.22;;;32.23;25.79
62072;BME280;48031;48.542;13.232;2023-05-20T13:18:19;97160.84;;;32.98;27.90
62072;BME280;48031;48.542;13.232;2023-05-20T13:22:21;97150.38;;;32.95;25.89
62072;BME280;48031;48.542;13.232;2023-05-20T13:26:23;97150.72;;;33.22;25.22
62072;BME280;48031;48.542;13.232;2023-05-20T13:30:25;97150.00;;;32.51;26.08
62072;BME280;48031;48.542;13.232;2023-05-20T13:34:29;97139.56;;;32.23;26.41
62072;BME280;48031;48.542;13.232;2023-05-20T13:38:31;97135.50;;;32.06;29.17
62072;BME280;48031;48.542;13.232;2023-05-20T13:42:35;97137.47;;;31.81;27.25
62072;BME280;48031;48.542;13.232;2023-05-20T13:46:36;97127.88;;;32.07;27.39
62072;BME280;48031;48.542;13.232;2023-05-20T13:50:38;97133.94;;;32.87;26.22
62072;BME280;48031;48.542;13.232;2023-05-20T13:54:40;97128.34;;;32.66;25.97
62072;BME280;48031;48.542;13.232;2023-05-20T13:58:43;97124.97;;;33.27;25.37
62072;BME280;48031;48.542;13.232;2023-05-20T14:02:45;97123.00;;;33.14;25.05
62072;BME280;48031;48.542;13.232;2023-05-20T14:06:47;97126.66;;;32.01;26.20
62072;BME280;48031;48.542;13.232;2023-05-20T14:10:49;97125.72;;;31.51;26.81
62072;BME280;48031;48.542;13.232;2023-05-20T14:14:55;97116.44;;;31.32;28.11
62072;BME280;48031;48.542;13.232;2023-05-20T14:18:57;97109.25;;;30.66;28.92
62072;BME280;48031;48.542;13.232;2023-05-20T14:22:59;97106.56;;;31.63;27.70
62072;BME280;48031;48.542;13.232;2023-05-20T14:27:02;97104.56;;;30.81;29.39
62072;BME280;48031;48.542;13.232;2023-05-20T14:31:03;97101.44;;;31.00;28.46
62072;BME280;48031;48.542;13.232;2023-05-20T14:35:10;97100.81;;;30.59;28.52
62072;BME280;48031;48.542;13.232;2023-05-20T14:39:12;97092.38;;;30.55;29.33
62072;BME280;48031;48.542;13.232;2023-05-20T14:43:14;97083.72;;;30.27;29.86
62072;BME280;48031;48.542;13.232;2023-05-20T14:47:15;97090.88;;;29.77;28.43
62072;BME280;48031;48.542;13.232;2023-05-20T14:51:19;97097.88;;;29.27;30.46
62072;BME280;48031;48.542;13.232;2023-05-20T14:55:21;97097.56;;;29.32;30.09
62072;BME280;48031;48.542;13.232;2023-05-20T14:59:23;97094.28;;;28.67;31.76
62072;BME280;48031;48.542;13.232;2023-05-20T15:03:25;97093.22;;;29.34;30.99
62072;BME280;48031;48.542;13.232;2023-05-20T15:07:28;97090.19;;;29.50;32.29
62072;BME280;48031;48.542;13.232;2023-05-20T15:11:30;97090.38;;;29.31;30.86
62072;BME280;48031;48.542;13.232;2023-05-20T15:15:32;97082.03;;;29.05;31.82
62072;BME280;48031;48.542;13.232;2023-05-20T15:19:34;97078.25;;;29.20;31.45
62072;BME280;48031;48.542;13.232;2023-05-20T15:23:41;97079.22;;;29.01;31.69
62072;BME280;48031;48.542;13.232;2023-05-20T15:27:42;97075.63;;;28.48;32.04
62072;BME280;48031;48.542;13.232;2023-05-20T15:31:44;97072.97;;;28.55;34.81
62072;BME280;48031;48.542;13.232;2023-05-20T15:35:47;97065.28;;;27.99;34.05
62072;BME280;48031;48.542;13.232;2023-05-20T15:39:49;97078.72;;;28.13;33.52
62072;BME280;48031;48.542;13.232;2023-05-20T15:43:51;97068.09;;;28.22;33.67
62072;BME280;48031;48.542;13.232;2023-05-20T15:47:53;97061.44;;;28.07;36.27
62072;BME280;48031;48.542;13.232;2023-05-20T15:51:55;97066.44;;;28.18;34.34
62072;BME280;48031;48.542;13.232;2023-05-20T15:56:04;97061.97;;;28.39;36.76
62072;BME280;48031;48.542;13.232;2023-05-20T16:00:07;97061.88;;;27.87;34.72
62072;BME280;48031;48.542;13.232;2023-05-20T16:04:12;97074.63;;;28.33;35.57
62072;BME280;48031;48.542;13.232;2023-05-20T16:08:14;97065.81;;;28.31;34.27
62072;BME280;48031;48.542;13.232;2023-05-20T16:12:16;97066.63;;;28.32;34.88
62072;BME280;48031;48.542;13.232;2023-05-20T16:16:18;97067.66;;;27.52;34.88
62072;BME280;48031;48.542;13.232;2023-05-20T16:20:20;97066.19;;;27.58;35.35
62072;BME280;48031;48.542;13.232;2023-05-20T16:24:21;97068.25;;;27.22;35.21
62072;BME280;48031;48.542;13.232;2023-05-20T16:28:23;97067.50;;;27.45;35.72
62072;BME280;48031;48.542;13.232;2023-05-20T16:32:26;97081.09;;;27.27;36.29
62072;BME280;48031;48.542;13.232;2023-05-20T16:36:28;97080.00;;;27.12;36.81
62072;BME280;48031;48.542;13.232;2023-05-20T16:40:30;97083.91;;;27.08;36.84
62072;BME280;48031;48.542;13.232;2023-05-20T16:44:32;97082.00;;;27.12;37.17
62072;BME280;48031;48.542;13.232;2023-05-20T16:48:39;97084.84;;;27.15;36.76
62072;BME280;48031;48.542;13.232;2023-05-20T16:52:40;97086.06;;;26.79;39.09
62072;BME280;48031;48.542;13.232;2023-05-20T16:56:42;97085.25;;;26.79;38.88
62072;BME280;48031;48.542;13.232;2023-05-20T17:00:44;97092.69;;;26.56;37.99
62072;BME280;48031;48.542;13.232;2023-05-20T17:04:47;97093.16;;;26.58;37.72
62072;BME280;48031;48.542;13.232;2023-05-20T17:08:49;97104.06;;;26.31;38.60
62072;BME280;48031;48.542;13.232;2023-05-20T17:12:51;97110.31;;;26.44;39.08
62072;BME280;48031;48.542;13.232;2023-05-20T17:16:53;97110.16;;;26.05;38.91
62072;BME280;48031;48.542;13.232;2023-05-20T17:20:55;97116.81;;;26.01;40.78
62072;BME280;48031;48.542;13.232;2023-05-20T17:24:57;97123.53;;;25.84;38.35
62072;BME280;48031;48.542;13.232;2023-05-20T17:28:58;97135.88;;;25.43;40.74
62072;BME280;48031;48.542;13.232;2023-05-20T17:33:00;97146.16;;;25.27;40.98
62072;BME280;48031;48.542;13.232;2023-05-20T17:37:02;97144.50;;;25.38;40.91
62072;BME280;48031;48.542;13.232;2023-05-20T17:41:04;97155.22;;;25.24;40.63
62072;BME280;48031;48.542;13.232;2023-05-20T17:45:06;97147.81;;;25.16;41.20
62072;BME280;48031;48.542;13.232;2023-05-20T17:49:08;97161.09;;;24.95;41.13
62072;BME280;48031;48.542;13.232;2023-05-20T17:53:10;97140.03;;;24.69;42.52
62072;BME280;48031;48.542;13.232;2023-05-20T17:57:12;97149.41;;;24.89;41.83
62072;BME280;48031;48.542;13.232;2023-05-20T18:01:14;97147.47;;;24.65;42.61
62072;BME280;48031;48.542;13.232;2023-05-20T18:05:16;97149.41;;;24.65;41.34
62072;BME280;48031;48.542;13.232;2023-05-20T18:09:18;97151.53;;;24.31;42.92
62072;BME280;48031;48.542;13.232;2023-05-20T18:13:20;97147.00;;;23.90;43.08
62072;BME280;48031;48.542;13.232;2023-05-20T18:17:22;97156.84;;;24.24;42.81
62072;BME280;48031;48.542;13.232;2023-05-20T18:21:24;97151.59;;;23.98;43.75
62072;BME280;48031;48.542;13.232;2023-05-20T18:25:27;97150.81;;;24.10;43.03
62072;BME280;48031;48.542;13.232;2023-05-20T18:29:28;97147.09;;;23.94;44.04
62072;BME280;48031;48.542;13.232;2023-05-20T18:33:31;97143.19;;;23.50;44.12
62072;BME280;48031;48.542;13.232;2023-05-20T18:37:33;97142.28;;;23.58;44.27
62072;BME280;48031;48.542;13.232;2023-05-20T18:41:35;97148.78;;;23.74;43.93
62072;BME280;48031;48.542;13.232;2023-05-20T18:45:48;97147.94;;;23.08;45.21
62072;BME280;48031;48.542;13.232;2023-05-20T18:49:49;97139.97;;;23.27;44.69
62072;BME280;48031;48.542;13.232;2023-05-20T18:53:51;97139.72;;;23.20;44.58
62072;BME280;48031;48.542;13.232;2023-05-20T18:57:53;97142.88;;;23.51;44.23
62072;BME280;48031;48.542;13.232;2023-05-20T19:01:55;97153.50;;;23.29;44.74
62072;BME280;48031;48.542;13.232;2023-05-20T19:05:57;97151.16;;;23.31;45.29
62072;BME280;48031;48.542;13.232;2023-05-20T19:09:59;97159.53;;;23.43;44.02
62072;BME280;48031;48.542;13.232;2023-05-20T19:14:01;97150.06;;;23.44;44.28
62072;BME280;48031;48.542;13.232;2023-05-20T19:18:04;97155.66;;;23.02;45.28
62072;BME280;48031;48.542;13.232;2023-05-20T19:22:07;97159.72;;;22.84;45.12
62072;BME280;48031;48.542;13.232;2023-05-20T19:26:09;97155.94;;;22.89;46.01
62072;BME280;48031;48.542;13.232;2023-05-20T19:30:11;97161.22;;;22.82;46.43
62072;BME280;48031;48.542;13.232;2023-05-20T19:34:13;97175.00;;;22.90;45.98
62072;BME280;48031;48.542;13.232;2023-05-20T19:38:14;97165.81;;;22.69;46.91
62072;BME280;48031;48.542;13.232;2023-05-20T19:42:16;97169.31;;;22.87;45.99
62072;BME280;48031;48.542;13.232;2023-05-20T19:46:18;97175.28;;;22.68;45.61
62072;BME280;48031;48.542;13.232;2023-05-20T19:50:20;97178.81;;;22.48;46.54
62072;BME280;48031;48.542;13.232;2023-05-20T19:54:22;97183.13;;;22.87;45.96
62072;BME280;48031;48.542;13.232;2023-05-20T19:58:24;97186.81;;;22.70;47.28
62072;BME280;48031;48.542;13.232;2023-05-20T20:02:25;97190.59;;;22.65;46.51
62072;BME280;48031;48.542;13.232;2023-05-20T20:06:27;97195.31;;;22.65;46.33
62072;BME280;48031;48.542;13.232;2023-05-20T20:10:29;97196.66;;;22.59;46.58
62072;BME280;48031;48.542;13.232;2023-05-20T20:14:31;97208.50;;;22.68;46.40
62072;BME280;48031;48.542;13.232;2023-05-20T20:18:33;97206.75;;;22.55;46.13
62072;BME280;48031;48.542;13.232;2023-05-20T20:22:35;97203.25;;;22.46;46.78
62072;BME280;48031;48.542;13.232;2023-05-20T20:26:37;97200.44;;;22.16;46.90
62072;BME280;48031;48.542;13.232;2023-05-20T20:30:39;97202.91;;;22.47;46.49
62072;BME280;48031;48.542;13.232;2023-05-20T20:34:41;97207.91;;;22.54;45.80
62072;BME280;48031;48.542;13.232;2023-05-20T20:38:43;97213.97;;;22.09;48.31
62072;BME280;48031;48.542;13.232;2023-05-20T20:42:47;97214.09;;;22.13;47.20
62072;BME280;48031;48.542;13.232;2023-05-20T20:46:49;97224.09;;;21.88;48.37
62072;BME280;48031;48.542;13.232;2023-05-20T20:50:55;97210.19;;;22.22;47.52
62072;BME280;48031;48.542;13.232;2023-05-20T20:54:57;97213.03;;;22.05;47.99
62072;BME280;48031;48.542;13.232;2023-05-20T20:58:59;97212.34;;;22.08;49.31
62072;BME280;48031;48.542;13.232;2023-05-20T21:03:01;97214.81;;;21.92;49.23
62072;BME280;48031;48.542;13.232;2023-05-20T21:07:03;97212.34;;;22.08;48.20
62072;BME280;48031;48.542;13.232;2023-05-20T21:11:05;97205.75;;;21.75;49.55
62072;BME280;48031;48.542;13.232;2023-05-20T21:15:08;97197.63;;;21.95;48.80
62072;BME280;48031;48.542;13.232;2023-05-20T21:19:10;97201.84;;;21.84;49.77
62072;BME280;48031;48.542;13.232;2023-05-20T21:23:12;97202.31;;;21.86;49.67